KBIE

Beatrice Municipal Airport

Beatrice, Nebraska, USA
METAR KBIE 151215Z AUTO 02007KT 3SM BR OVC004 21/20 A2989 RMK AO2 T02050202
Observed Flight Rules
Aug-15 @ 12:15 UTC (27 minutes ago) Instrument Flight Rules
Wind Visibility Clouds Conditions
20° at 7 knots 3 miles
  • Overcast at 400' AGL
  • Mist
Temperatures Readings
Current 21°C / 70°F
Dewpoint 20°C / 68°F
Humidity 94%
Altimeter 29.89" Hg
Pressure 1012 hPa
Elevation 403
METAR KBIE 151215Z AUTO 02007KT 3SM BR OVC004 21/20 A2989 RMK AO2 T02050202
Observed Flight Rules
Aug-15 @ 12:15 UTC
(27 minutes ago)
LIFR
Wind Visibility
20° at 7 knots 3 miles
Clouds
  • Overcast at 400' AGL
Conditions
  • Mist
Temperature Dewpoint
21°C / 70°F 20°C / 68°F
Humidity Altimeter Pressure
94% 29.89" Hg 1012 hPa